Aeroporto :
LOGIN :

Iscrizione | Disclaimer

   EN    FR    IT 

 










Sommario :    VFR   VFR Marginale   IFR   IFR Intensivo   IFR Molto Intensivo
Visibilità : 
Base nubi : 
>= 8 km
>= 3000ft
5 / 8 km
1000 / 3000 ft
1500m / 5 km
500 / 1000 ft
800 / 1500m
200 / 500 ft
< 800m
< 200 ft
Simboli :   Temporali  Nebbia  Neve Forte  Precipitazioni Forti  Vento > 20 kt
SIGMETs :   Varie  Temporali  Ghiacco  Turbolenza  Onda orograficha  Ceneri Vulcaniche






- Altitudine del aeroporto : 297 ft
- Codice IATA : UIP


LFRQ - Quimper Pluguffan

ULTIMO METAR :
  • 250700Z AUTO 27009KT 9999 FEW021/// SCT042/// BKN050/// ///TCU 08/06 Q1012 TEMPO 28022G35KT 3000 SHRAGS FEW013CB SCT017TCU BKN025

METARs OBSOLETI :
  • 250630Z AUTO 26010KT 9999 FEW027 BKN041 OVC048 08/06 Q1012 TEMPO 28022G35KT 3000 SHRAGS FEW013CB SCT017TCU BKN025
  • 250600Z AUTO 28010KT 9999 FEW043 BKN050 08/06 Q1012
  • 250530Z AUTO 29011KT 9999 FEW029 SCT041 BKN049 08/05 Q1012
  • 250500Z AUTO 27008KT 9999 BKN046 OVC052 08/04 Q1012
  • 250430Z AUTO 29008KT 9999 OVC042 08/06 Q1012

TAF TAF LFRQ
Valido dal 25 a 06 ore il 26 a 06 ore UTC


250500Z 2506/2606 29011KT 9999 FEW021 SCT041 BKN049
TEMPO 2506/2606 28022G35KT 3000 SHRAGS FEW013CB SCT017TCU BKN025
TEMPO 2600/2606 28025G45KT 3000 SHGS SCT013CB BKN025



MetMap, La meteo Aeronautica in un colpo d'occhio ! - Copyright ORBIFLY Dicembre 2007 - Disclaimer

ORBIFLY MET'MAP TEAM :

Programmazione e sviluppo : Alexandra Zaïnal
Concezione : Baudouin d'Aumeries
Aiuto per la programmazione : Marc-Olivier Méhu
Supporto tecnico e logistico : Manuel Goepfert
Aiuto per la traduzione : Arnaldo La Scala

Contatto : metmap@orbifly.com




FONTI E CREDITI :

   NOAA